BUT weather

Bathpalathang Airport
Jakar, Bumthang, Bhutan

Public forecast

Using degrees Celsius for public forecast. Weather courtesy of forecast.io.

METAR (pilot weather report)

Report is more than 6 hours old.

Closest report is Paro Airport, 71.1 nm (131.7 km) W. Retrieved 2019/09/17 11:00 UTC (9 hours ago):

VQPR 171100Z VRB01KT 8000 SCT020 OVC060 19/13 Q1021

TAF (pilot weather forecast)

Forecast is more than 12 hours old.

Closest forecast is Lokpriya Gopinath Bordoloi International Airport, 98.3 nm (182.0 km) SSE. Retrieved 2016/03/24 00:45 UTC (3 years ago):

TAF VEGT 242300Z 2500/2606 00000KT 2000 BR FEW020 BECMG 2503/2506 05008KT 4000 HZ BECMG 2506/2509 5000 HZ BECMG 2512/2514 00000KT 4000 HZ FEW020 SCT100 BECMG 2515/2518 2500 HZ BECMG 2603/2606 05008KT 4000 HZ FEW020=